Time;durP1;ratioP1;P1;durP2;ratioP2;P2;SDS_P1;SDS_P2;PMS_P1;PMS_P2;Temp;Humidity;BMP_temperature;BMP_pressure;BME280_temperature;BME280_humidity;BME280_pressure;Samples;Min_cycle;Max_cycle;Signal;HPM_P1;HPM_P2
2020/12/07 05:26:19;;;;;;;1999.90;999.90;;;4.90;99.90;;;;;;5108142;27;20609;-50
2020/12/07 05:28:51;;;;;;;1999.90;999.90;;;4.60;99.90;;;;;;5083083;28;20438;-48
2020/12/07 05:31:18;;;;;;;1999.90;999.90;;;4.50;99.90;;;;;;5087976;28;20460;-48
2020/12/07 05:33:48;;;;;;;1999.90;999.90;;;4.30;99.90;;;;;;5089197;28;20440;-49
2020/12/07 05:36:14;;;;;;;1999.90;999.90;;;4.10;99.90;;;;;;5086170;28;20415;-49
2020/12/07 05:38:42;;;;;;;1999.90;999.90;;;3.90;99.90;;;;;;5079990;28;20448;-48
2020/12/07 05:41:10;;;;;;;1999.90;999.90;;;3.70;99.90;;;;;;5067415;28;20469;-49
2020/12/07 05:43:37;;;;;;;1999.90;999.90;;;3.50;99.90;;;;;;5069918;28;20944;-50
2020/12/07 05:46:04;;;;;;;1999.90;999.90;;;3.40;99.90;;;;;;5068410;28;20464;-48
2020/12/07 05:48:32;;;;;;;1999.90;999.90;;;3.20;99.90;;;;;;5083027;28;20582;-49
2020/12/07 05:51:03;;;;;;;1999.90;999.90;;;3.20;99.90;;;;;;5088377;28;20411;-50
2020/12/07 05:53:35;;;;;;;1999.90;999.90;;;3.10;99.90;;;;;;5088592;28;20480;-48
2020/12/07 05:56:06;;;;;;;1999.90;999.90;;;3.00;99.90;;;;;;5067155;28;20807;-49
2020/12/07 05:59:04;;;;;;;1999.90;999.90;;;3.00;99.90;;;;;;5067175;28;20959;-49
2020/12/07 06:01:33;;;;;;;1999.90;999.90;;;3.00;99.90;;;;;;5073464;28;20530;-48
2020/12/07 06:03:58;;;;;;;1999.90;999.90;;;3.00;99.90;;;;;;5080337;28;20485;-51
2020/12/07 06:06:31;;;;;;;1999.90;999.90;;;3.00;99.90;;;;;;5060501;28;20433;-49
2020/12/07 06:09:01;;;;;;;1999.90;999.90;;;3.00;99.90;;;;;;5067519;28;20173;-50
2020/12/07 06:11:29;;;;;;;1999.90;999.90;;;3.10;99.90;;;;;;5068282;28;20436;-49
2020/12/07 06:13:56;;;;;;;1999.90;999.90;;;3.10;99.90;;;;;;5085681;28;20471;-51
2020/12/07 06:16:27;;;;;;;1999.90;999.90;;;3.10;99.90;;;;;;5086421;28;20442;-49
2020/12/07 06:18:56;;;;;;;1999.90;999.90;;;3.10;99.90;;;;;;5080302;28;20458;-49
2020/12/07 06:21:22;;;;;;;1999.90;999.90;;;3.10;99.90;;;;;;5084543;28;20427;-49
2020/12/07 06:23:48;;;;;;;1999.90;999.90;;;3.10;99.90;;;;;;5088578;28;20453;-49
2020/12/07 06:26:17;;;;;;;1999.90;999.90;;;3.10;99.90;;;;;;5088647;28;20462;-50
2020/12/07 06:28:47;;;;;;;1999.90;999.90;;;3.10;99.90;;;;;;5087910;28;20180;-49
2020/12/07 06:31:17;;;;;;;1999.90;999.90;;;3.00;99.90;;;;;;5088393;28;20451;-50
2020/12/07 06:33:46;;;;;;;1999.90;999.90;;;3.10;99.90;;;;;;5075572;28;20549;-50
2020/12/07 06:36:29;;;;;;;1999.90;999.90;;;3.00;99.90;;;;;;5076896;28;20466;-53
2020/12/07 06:39:14;;;;;;;1999.90;999.90;;;3.10;99.90;;;;;;5053265;28;20435;-49
2020/12/07 06:41:45;;;;;;;1999.90;999.90;;;3.00;99.90;;;;;;5052982;28;20465;-50
2020/12/07 06:44:15;;;;;;;1999.90;999.90;;;3.10;99.90;;;;;;5053165;28;20807;-49
2020/12/07 06:46:54;;;;;;;1999.90;999.90;;;3.00;99.90;;;;;;5052772;28;20432;-51
2020/12/07 06:49:35;;;;;;;1999.90;999.90;;;3.10;99.90;;;;;;5053422;28;20430;-48
2020/12/07 06:52:09;;;;;;;1999.90;999.90;;;3.10;99.90;;;;;;5051984;28;20447;-49
2020/12/07 06:57:51;;;;;;;1999.90;999.90;;;3.00;99.90;;;;;;4992421;28;20512;-49
2020/12/07 07:00:24;;;;;;;1999.90;999.90;;;3.10;99.90;;;;;;4992429;28;20414;-49
2020/12/07 07:02:51;;;;;;;1999.90;999.90;;;3.00;99.90;;;;;;5016701;28;20464;-50
2020/12/07 07:05:19;;;;;;;1999.90;999.90;;;3.00;99.90;;;;;;5063593;28;20528;-50
2020/12/07 07:07:45;;;;;;;1999.90;999.90;;;3.00;99.90;;;;;;5064955;28;20442;-49
2020/12/07 07:10:13;;;;;;;1999.90;999.90;;;3.00;99.90;;;;;;5059454;28;20460;-49
2020/12/07 07:12:42;;;;;;;1999.90;999.90;;;3.00;99.90;;;;;;5057759;28;20459;-49
2020/12/07 07:15:09;;;;;;;1999.90;999.90;;;2.90;99.90;;;;;;5054040;28;20427;-48
2020/12/07 07:17:37;;;;;;;1999.90;999.90;;;2.90;99.90;;;;;;5053769;28;20423;-49
2020/12/07 07:20:05;;;;;;;1999.90;999.90;;;2.90;99.90;;;;;;5053316;28;20427;-49
2020/12/07 07:22:31;;;;;;;1999.90;999.90;;;2.80;99.90;;;;;;5054105;28;20420;-49
2020/12/07 07:30:28;;;;;;;1999.90;999.90;;;2.70;99.90;;;;;;5074139;22;20491;-52
2020/12/07 07:32:54;;;;;;;1999.90;999.90;;;2.70;99.90;;;;;;5074658;28;20483;-52
2020/12/07 07:35:23;;;;;;;1999.90;999.90;;;2.60;99.90;;;;;;5073770;28;20196;-52
2020/12/07 07:37:49;;;;;;;1999.90;999.90;;;2.60;99.90;;;;;;5074335;28;20410;-51
2020/12/07 07:40:16;;;;;;;1999.90;999.90;;;2.70;99.90;;;;;;5074538;28;20437;-52
2020/12/07 07:42:50;;;;;;;1999.90;999.90;;;2.70;99.90;;;;;;5056250;28;20949;-53
2020/12/07 07:45:30;;;;;;;1999.90;999.90;;;2.70;99.90;;;;;;5072052;28;20495;-51
2020/12/07 07:48:18;;;;;;;1999.90;999.90;;;2.70;99.90;;;;;;5070568;28;21008;-51
2020/12/07 08:13:00;;;;;;;1999.90;999.90;;;2.90;99.90;;;;;;5073491;28;20421;-52
2020/12/07 08:17:53;;;;;;;1999.90;999.90;;;3.00;99.90;;;;;;5073170;28;20442;-51
2020/12/07 08:20:21;;;;;;;1999.90;999.90;;;2.90;99.90;;;;;;5073475;28;20458;-52
2020/12/07 08:22:58;;;;;;;1999.90;999.90;;;2.90;99.90;;;;;;5073323;28;20522;-51
2020/12/07 08:25:45;;;;;;;1999.90;999.90;;;3.10;99.90;;;;;;5074181;28;20453;-52
2020/12/07 08:28:29;;;;;;;1999.90;999.90;;;3.00;99.90;;;;;;5072648;28;20985;-53
2020/12/07 08:31:03;;;;;;;1999.90;999.90;;;3.00;99.90;;;;;;5074780;28;20517;-53
2020/12/07 08:33:30;;;;;;;1999.90;999.90;;;3.00;99.90;;;;;;5074472;28;20407;-52
2020/12/07 08:35:57;;;;;;;1999.90;999.90;;;3.00;99.90;;;;;;5073736;28;20439;-53
2020/12/07 08:38:31;;;;;;;1999.90;999.90;;;3.00;99.90;;;;;;5073539;28;20464;-53
2020/12/07 15:47:32;;;;;;;1999.90;999.90;;;3.00;99.90;;;;;;5062871;28;20973;-50
2020/12/07 15:49:57;;;;;;;1999.90;999.90;;;3.00;99.90;;;;;;5060760;28;20520;-49
2020/12/07 15:52:29;;;;;;;1999.90;999.90;;;3.00;99.90;;;;;;5057392;28;20181;-49
2020/12/07 15:54:55;;;;;;;1999.90;999.90;;;3.10;99.90;;;;;;5059820;28;20268;-49
2020/12/07 15:57:22;;;;;;;1999.90;999.90;;;3.10;99.90;;;;;;5047862;28;20531;-50
2020/12/07 15:59:48;;;;;;;1999.90;999.90;;;3.10;99.90;;;;;;5052257;28;20221;-48
2020/12/07 16:02:15;;;;;;;1999.90;999.90;;;3.20;99.90;;;;;;5066888;28;20412;-49
2020/12/07 16:04:41;;;;;;;1999.90;999.90;;;3.20;99.90;;;;;;5064769;28;20459;-50
2020/12/07 16:07:06;;;;;;;1999.90;999.90;;;3.30;99.90;;;;;;5060948;28;20857;-49
2020/12/07 16:09:32;;;;;;;1999.90;999.90;;;3.30;99.90;;;;;;5057929;28;20201;-49
2020/12/07 16:11:57;;;;;;;1999.90;999.90;;;3.30;99.90;;;;;;5049318;28;20186;-50
2020/12/07 16:14:23;;;;;;;1999.90;999.90;;;3.30;99.90;;;;;;5053324;28;20720;-51
2020/12/07 16:16:50;;;;;;;1999.90;999.90;;;3.20;99.90;;;;;;5053488;28;20613;-51
2020/12/07 16:19:16;;;;;;;1999.90;999.90;;;3.20;99.90;;;;;;5052132;28;20525;-49
2020/12/07 16:21:42;;;;;;;1999.90;999.90;;;3.20;99.90;;;;;;5054219;28;20446;-51
2020/12/07 16:24:09;;;;;;;1999.90;999.90;;;3.30;99.90;;;;;;5056368;28;20878;-50
2020/12/07 16:26:36;;;;;;;1999.90;999.90;;;3.30;99.90;;;;;;5060582;28;20209;-49
2020/12/07 16:29:02;;;;;;;1999.90;999.90;;;3.30;99.90;;;;;;5054157;28;20437;-49
2020/12/07 16:31:30;;;;;;;1999.90;999.90;;;3.20;99.90;;;;;;5048327;28;20926;-52
2020/12/07 16:33:56;;;;;;;1999.90;999.90;;;3.20;99.90;;;;;;5054850;28;20221;-50
2020/12/07 16:36:22;;;;;;;1999.90;999.90;;;3.20;99.90;;;;;;5054125;28;20448;-51
2020/12/07 16:38:48;;;;;;;1999.90;999.90;;;3.30;99.90;;;;;;5052131;28;20438;-51
2020/12/07 16:41:14;;;;;;;1999.90;999.90;;;3.30;99.90;;;;;;5048858;28;20495;-51
2020/12/07 16:43:40;;;;;;;1999.90;999.90;;;3.20;99.90;;;;;;5056273;28;20647;-50
2020/12/07 16:46:05;;;;;;;1999.90;999.90;;;3.20;99.90;;;;;;5052670;28;20719;-49
2020/12/07 16:48:31;;;;;;;1999.90;999.90;;;3.30;99.90;;;;;;5050483;28;20447;-50
2020/12/07 16:50:57;;;;;;;1999.90;999.90;;;3.30;99.90;;;;;;5050784;28;20217;-50
2020/12/07 16:53:23;;;;;;;1999.90;999.90;;;3.20;99.90;;;;;;5054373;28;20197;-50
2020/12/07 16:55:48;;;;;;;1999.90;999.90;;;3.30;99.90;;;;;;5053964;28;20263;-51
2020/12/07 16:58:14;;;;;;;1999.90;999.90;;;3.30;99.90;;;;;;5041968;28;20193;-50
2020/12/07 17:00:40;;;;;;;1999.90;999.90;;;3.20;99.90;;;;;;5034586;28;20269;-50
2020/12/07 17:03:06;;;;;;;1999.90;999.90;;;3.20;99.90;;;;;;5036761;28;20208;-50
2020/12/07 17:05:32;;;;;;;1999.90;999.90;;;3.30;99.90;;;;;;5041773;28;20288;-48
2020/12/07 17:07:58;;;;;;;1999.90;999.90;;;3.30;99.90;;;;;;5035206;28;20436;-49
2020/12/07 17:10:24;;;;;;;1999.90;999.90;;;3.30;99.90;;;;;;5042153;28;20941;-50
2020/12/07 17:12:50;;;;;;;1999.90;999.90;;;3.20;99.90;;;;;;5043511;28;20625;-51
2020/12/07 17:15:16;;;;;;;1999.90;999.90;;;3.20;99.90;;;;;;5036773;28;20446;-53
2020/12/07 17:17:42;;;;;;;1999.90;999.90;;;3.20;99.90;;;;;;5055589;28;20425;-54
2020/12/07 17:20:08;;;;;;;1999.90;999.90;;;3.20;99.90;;;;;;5049418;28;20464;-51
2020/12/07 17:22:34;;;;;;;1999.90;999.90;;;3.20;99.90;;;;;;5039545;28;20531;-51
2020/12/07 17:25:00;;;;;;;1999.90;999.90;;;3.20;99.90;;;;;;5041856;28;20488;-50
2020/12/07 17:27:26;;;;;;;1999.90;999.90;;;3.20;99.90;;;;;;5043221;28;20471;-50
2020/12/07 17:29:51;;;;;;;1999.90;999.90;;;3.20;99.90;;;;;;5039454;28;20205;-50
2020/12/07 17:32:17;;;;;;;1999.90;999.90;;;3.20;99.90;;;;;;5042251;28;20632;-51
2020/12/07 17:34:43;;;;;;;1999.90;999.90;;;3.10;99.90;;;;;;5039472;28;20860;-50
2020/12/07 17:37:08;;;;;;;1999.90;999.90;;;3.10;99.90;;;;;;5041644;28;20272;-51
2020/12/07 17:39:34;;;;;;;1999.90;999.90;;;3.10;99.90;;;;;;5039581;28;20241;-52
2020/12/07 17:42:00;;;;;;;1999.90;999.90;;;3.10;99.90;;;;;;5036672;28;20230;-52
2020/12/07 17:44:27;;;;;;;1999.90;999.90;;;3.10;99.90;;;;;;5036089;28;20469;-52
2020/12/07 17:46:57;;;;;;;1999.90;999.90;;;3.10;99.90;;;;;;5039598;28;20533;-53
2020/12/07 17:49:23;;;;;;;1999.90;999.90;;;3.10;99.90;;;;;;5039602;28;21216;-52
2020/12/07 17:51:49;;;;;;;1999.90;999.90;;;3.10;99.90;;;;;;5037845;28;20473;-52
2020/12/07 17:54:14;;;;;;;1999.90;999.90;;;3.20;99.90;;;;;;5039309;28;20449;-51
2020/12/07 17:56:40;;;;;;;1999.90;999.90;;;3.20;99.90;;;;;;5037054;28;20208;-50
2020/12/07 17:59:06;;;;;;;1999.90;999.90;;;3.20;99.90;;;;;;5037234;28;20192;-51
2020/12/07 18:01:31;;;;;;;1999.90;999.90;;;3.10;99.90;;;;;;5035630;28;20198;-52
2020/12/07 18:03:57;;;;;;;1999.90;999.90;;;3.10;99.90;;;;;;5035501;28;20533;-52
2020/12/07 18:06:24;;;;;;;1999.90;999.90;;;3.10;99.90;;;;;;5033836;28;20217;-52
2020/12/07 18:08:50;;;;;;;1999.90;999.90;;;3.10;99.90;;;;;;5036850;28;20273;-51
2020/12/07 18:11:15;;;;;;;1999.90;999.90;;;3.10;99.90;;;;;;5035643;28;20639;-52
2020/12/07 18:13:41;;;;;;;1999.90;999.90;;;3.20;99.90;;;;;;5036763;28;20200;-53
2020/12/07 18:16:07;;;;;;;1999.90;999.90;;;3.20;99.90;;;;;;5037499;28;20186;-52
2020/12/07 18:18:33;;;;;;;1999.90;999.90;;;3.10;99.90;;;;;;5035960;28;20546;-52
2020/12/07 18:21:00;;;;;;;1999.90;999.90;;;3.10;99.90;;;;;;5035550;28;20209;-52
2020/12/07 18:23:26;;;;;;;1999.90;999.90;;;3.00;99.90;;;;;;5034758;28;20185;-52
2020/12/07 18:25:52;;;;;;;1999.90;999.90;;;3.10;99.90;;;;;;5038712;28;20471;-52
2020/12/07 18:28:18;;;;;;;1999.90;999.90;;;3.10;99.90;;;;;;5040669;28;21839;-52
2020/12/07 18:30:43;;;;;;;1999.90;999.90;;;3.00;99.90;;;;;;5036642;28;20198;-52
2020/12/07 18:33:09;;;;;;;1999.90;999.90;;;3.00;99.90;;;;;;5037247;28;20179;-52
2020/12/07 18:35:35;;;;;;;1999.90;999.90;;;2.90;99.90;;;;;;5033949;28;20194;-52
2020/12/07 18:38:01;;;;;;;1999.90;999.90;;;2.90;99.90;;;;;;5035813;28;20428;-52
2020/12/07 18:40:27;;;;;;;1999.90;999.90;;;2.90;99.90;;;;;;5040796;28;20277;-52
2020/12/07 18:42:54;;;;;;;1999.90;999.90;;;2.90;99.90;;;;;;5038730;28;20598;-52
2020/12/07 18:45:21;;;;;;;1999.90;999.90;;;2.90;99.90;;;;;;5044821;28;20420;-51
2020/12/07 18:47:47;;;;;;;1999.90;999.90;;;2.90;99.90;;;;;;5042476;28;20526;-51
2020/12/07 18:50:13;;;;;;;1999.90;999.90;;;2.90;99.90;;;;;;5033895;28;20626;-52
2020/12/07 18:52:38;;;;;;;1999.90;999.90;;;2.90;99.90;;;;;;5033392;28;20204;-52
2020/12/07 18:55:04;;;;;;;1999.90;999.90;;;2.80;99.90;;;;;;5031877;28;20200;-52
2020/12/07 18:57:31;;;;;;;1999.90;999.90;;;2.80;99.90;;;;;;5036597;28;20196;-52
2020/12/07 18:59:57;;;;;;;1999.90;999.90;;;2.80;99.90;;;;;;5045688;28;20197;-51
2020/12/07 19:02:29;;;;;;;1999.90;999.90;;;2.80;99.90;;;;;;5035967;28;21045;-51
2020/12/07 19:04:55;;;;;;;1999.90;999.90;;;2.70;99.90;;;;;;5037788;28;20933;-52
2020/12/07 19:07:22;;;;;;;1999.90;999.90;;;2.80;99.90;;;;;;5037807;28;21085;-50
2020/12/07 19:09:48;;;;;;;1999.90;999.90;;;2.80;99.90;;;;;;5042955;28;20866;-52
2020/12/07 19:12:13;;;;;;;1999.90;999.90;;;2.80;99.90;;;;;;5035641;28;20436;-52
2020/12/07 19:14:39;;;;;;;1999.90;999.90;;;2.80;99.90;;;;;;5040477;28;20701;-51
2020/12/07 19:17:05;;;;;;;1999.90;999.90;;;2.80;99.90;;;;;;5040768;28;20193;-51
2020/12/07 19:19:30;;;;;;;1999.90;999.90;;;2.80;99.90;;;;;;5035079;28;20245;-52
2020/12/07 19:21:57;;;;;;;1999.90;999.90;;;2.80;99.90;;;;;;5034058;28;20223;-51
2020/12/07 19:24:24;;;;;;;1999.90;999.90;;;2.90;99.90;;;;;;5037709;28;20256;-52
2020/12/07 19:26:50;;;;;;;1999.90;999.90;;;2.90;99.90;;;;;;5046828;28;20570;-51
2020/12/07 19:29:16;;;;;;;1999.90;999.90;;;2.80;99.90;;;;;;5037656;28;20455;-52
2020/12/07 19:31:41;;;;;;;1999.90;999.90;;;2.80;99.90;;;;;;5037493;28;20231;-52
2020/12/07 19:34:07;;;;;;;1999.90;999.90;;;2.80;99.90;;;;;;5039287;28;20195;-52
2020/12/07 19:36:34;;;;;;;1999.90;999.90;;;2.80;99.90;;;;;;5039187;28;20680;-52
2020/12/07 19:39:00;;;;;;;1999.90;999.90;;;2.90;99.90;;;;;;5039176;28;20210;-51
2020/12/07 19:41:26;;;;;;;1999.90;999.90;;;2.90;99.90;;;;;;5034950;28;20962;-51
2020/12/07 19:43:52;;;;;;;1999.90;999.90;;;2.90;99.90;;;;;;5035583;28;20444;-51
2020/12/07 19:46:17;;;;;;;1999.90;999.90;;;2.90;99.90;;;;;;5041245;28;20206;-52
2020/12/07 19:48:43;;;;;;;1999.90;999.90;;;2.80;99.90;;;;;;5039499;28;20193;-51
2020/12/07 19:51:09;;;;;;;1999.90;999.90;;;2.80;99.90;;;;;;5040503;28;20197;-51
2020/12/07 19:53:34;;;;;;;1999.90;999.90;;;2.70;99.90;;;;;;5041001;28;20375;-52
2020/12/07 19:56:00;;;;;;;1999.90;999.90;;;2.70;99.90;;;;;;5036887;28;20186;-52
2020/12/07 19:58:26;;;;;;;1999.90;999.90;;;2.70;99.90;;;;;;5038360;28;20182;-50
2020/12/07 20:00:54;;;;;;;1999.90;999.90;;;2.70;99.90;;;;;;5039706;28;20219;-51
2020/12/07 20:03:20;;;;;;;1999.90;999.90;;;2.70;99.90;;;;;;5039703;28;20276;-51
2020/12/07 20:05:46;;;;;;;1999.90;999.90;;;2.70;99.90;;;;;;5040787;28;20463;-51
2020/12/07 20:08:11;;;;;;;1999.90;999.90;;;2.80;99.90;;;;;;5040083;28;20427;-51
2020/12/07 20:10:37;;;;;;;1999.90;999.90;;;2.70;99.90;;;;;;5041642;28;20211;-50
2020/12/07 20:13:03;;;;;;;1999.90;999.90;;;2.70;99.90;;;;;;5040273;28;20255;-52
2020/12/07 20:15:28;;;;;;;1999.90;999.90;;;2.70;99.90;;;;;;5040716;28;20642;-52
2020/12/07 20:17:54;;;;;;;1999.90;999.90;;;2.70;99.90;;;;;;5039557;28;20244;-51
2020/12/07 20:20:20;;;;;;;1999.90;999.90;;;2.70;99.90;;;;;;5039211;28;20201;-51
2020/12/07 20:22:50;;;;;;;1999.90;999.90;;;2.60;99.90;;;;;;5043013;28;20742;-52
2020/12/07 20:25:17;;;;;;;1999.90;999.90;;;2.60;99.90;;;;;;5033980;28;20514;-52
2020/12/07 20:27:43;;;;;;;1999.90;999.90;;;2.60;99.90;;;;;;5039035;28;20423;-51
2020/12/07 20:30:09;;;;;;;1999.90;999.90;;;2.60;99.90;;;;;;5038029;28;20461;-51
2020/12/07 20:32:35;;;;;;;1999.90;999.90;;;2.60;99.90;;;;;;5039687;28;20437;-52
2020/12/07 20:35:01;;;;;;;1999.90;999.90;;;2.60;99.90;;;;;;5048954;28;20570;-50
2020/12/07 20:37:26;;;;;;;1999.90;999.90;;;2.60;99.90;;;;;;5047687;28;20294;-51
2020/12/07 20:39:52;;;;;;;1999.90;999.90;;;2.60;99.90;;;;;;5042958;28;20209;-51
2020/12/07 20:42:18;;;;;;;1999.90;999.90;;;2.70;99.90;;;;;;5046528;28;20250;-50
2020/12/07 20:44:43;;;;;;;1999.90;999.90;;;2.70;99.90;;;;;;5031960;28;20175;-51
2020/12/07 20:47:09;;;;;;;1999.90;999.90;;;2.60;99.90;;;;;;5044058;28;20466;-51
2020/12/07 20:49:35;;;;;;;1999.90;999.90;;;2.60;99.90;;;;;;5041844;28;20221;-51
2020/12/07 20:52:00;;;;;;;1999.90;999.90;;;2.60;99.90;;;;;;5047996;28;20187;-51
2020/12/07 20:54:26;;;;;;;1999.90;999.90;;;2.60;99.90;;;;;;5047370;28;20197;-51
2020/12/07 20:56:52;;;;;;;1999.90;999.90;;;2.70;99.90;;;;;;5030475;28;20194;-51
2020/12/07 20:59:18;;;;;;;1999.90;999.90;;;2.60;99.90;;;;;;5029168;28;20358;-50
2020/12/07 21:01:43;;;;;;;1999.90;999.90;;;2.60;99.90;;;;;;5035128;28;20300;-50
2020/12/07 21:04:09;;;;;;;1999.90;999.90;;;2.60;99.90;;;;;;5041570;28;20522;-50
2020/12/07 21:06:34;;;;;;;1999.90;999.90;;;2.60;99.90;;;;;;5047061;28;20280;-51
2020/12/07 21:09:00;;;;;;;1999.90;999.90;;;2.60;99.90;;;;;;5039358;28;20295;-49
2020/12/07 21:11:26;;;;;;;1999.90;999.90;;;2.60;99.90;;;;;;5048541;28;20265;-50
2020/12/07 21:13:52;;;;;;;1999.90;999.90;;;2.60;99.90;;;;;;5049187;28;20440;-50
2020/12/07 21:16:19;;;;;;;1999.90;999.90;;;2.60;99.90;;;;;;5039676;28;20189;-53
2020/12/07 21:18:46;;;;;;;1999.90;999.90;;;2.60;99.90;;;;;;5066724;28;20224;-51
2020/12/07 21:21:12;;;;;;;1999.90;999.90;;;2.50;99.90;;;;;;5047687;28;20556;-49
2020/12/07 21:23:38;;;;;;;1999.90;999.90;;;2.60;99.90;;;;;;5045542;28;20455;-50
2020/12/07 21:26:04;;;;;;;1999.90;999.90;;;2.60;99.90;;;;;;5046823;28;20459;-51
2020/12/07 21:28:30;;;;;;;1999.90;999.90;;;2.60;99.90;;;;;;5036520;28;20458;-51
2020/12/07 21:30:55;;;;;;;1999.90;999.90;;;2.60;99.90;;;;;;5046144;28;20494;-50
2020/12/07 21:33:21;;;;;;;1999.90;999.90;;;2.70;99.90;;;;;;5029038;28;20193;-52
2020/12/07 21:35:47;;;;;;;1999.90;999.90;;;2.70;99.90;;;;;;5039372;28;20195;-50
2020/12/07 21:38:13;;;;;;;1999.90;999.90;;;2.60;99.90;;;;;;5027427;28;20333;-51
2020/12/07 21:40:40;;;;;;;1999.90;999.90;;;2.70;99.90;;;;;;5041304;28;20213;-50
2020/12/07 21:43:05;;;;;;;1999.90;999.90;;;2.70;99.90;;;;;;5048270;28;21012;-51
2020/12/07 21:45:32;;;;;;;1999.90;999.90;;;2.70;99.90;;;;;;5034501;28;20535;-50
2020/12/07 21:47:57;;;;;;;1999.90;999.90;;;2.70;99.90;;;;;;5031336;28;20381;-50
2020/12/07 21:50:23;;;;;;;1999.90;999.90;;;2.70;99.90;;;;;;5029897;28;20486;-50
2020/12/07 21:52:49;;;;;;;1999.90;999.90;;;2.70;99.90;;;;;;5037563;28;20671;-50
2020/12/07 21:55:15;;;;;;;1999.90;999.90;;;2.60;99.90;;;;;;5034342;28;20448;-51
2020/12/07 21:57:40;;;;;;;1999.90;999.90;;;2.60;99.90;;;;;;5039281;28;20974;-54
2020/12/07 22:00:08;;;;;;;1999.90;999.90;;;2.60;99.90;;;;;;5045308;28;20681;-50
2020/12/07 22:02:33;;;;;;;1999.90;999.90;;;2.60;99.90;;;;;;5031606;28;20189;-50
2020/12/07 22:04:59;;;;;;;1999.90;999.90;;;2.60;99.90;;;;;;5030463;28;20444;-49
2020/12/07 22:07:26;;;;;;;1999.90;999.90;;;2.60;99.90;;;;;;5033000;28;20220;-50
2020/12/07 22:09:52;;;;;;;1999.90;999.90;;;2.60;99.90;;;;;;5047177;28;20212;-50
2020/12/07 22:12:18;;;;;;;1999.90;999.90;;;2.60;99.90;;;;;;5039445;28;20444;-50
2020/12/07 22:14:43;;;;;;;1999.90;999.90;;;2.60;99.90;;;;;;5040256;28;20330;-50
2020/12/07 22:17:09;;;;;;;1999.90;999.90;;;2.70;99.90;;;;;;5040453;28;20650;-50
2020/12/07 22:19:35;;;;;;;1999.90;999.90;;;2.60;99.90;;;;;;5047100;28;20240;-50
2020/12/07 22:22:02;;;;;;;1999.90;999.90;;;2.60;99.90;;;;;;5035729;28;20451;-50
2020/12/07 22:24:29;;;;;;;1999.90;999.90;;;2.60;99.90;;;;;;5035465;28;20436;-50
2020/12/07 22:27:02;;;;;;;1999.90;999.90;;;2.60;99.90;;;;;;5031768;28;20494;-52
2020/12/07 22:29:28;;;;;;;1999.90;999.90;;;2.70;99.90;;;;;;5038681;28;20462;-49
2020/12/07 22:31:54;;;;;;;1999.90;999.90;;;2.70;99.90;;;;;;5051302;28;20411;-50
2020/12/07 22:34:21;;;;;;;1999.90;999.90;;;2.80;99.90;;;;;;5040321;28;20492;-49
2020/12/07 22:36:47;;;;;;;1999.90;999.90;;;2.80;99.90;;;;;;5031280;28;20912;-49
2020/12/07 22:39:13;;;;;;;1999.90;999.90;;;2.70;99.90;;;;;;5040521;28;20936;-50
2020/12/07 22:41:39;;;;;;;1999.90;999.90;;;2.60;99.90;;;;;;5050729;28;20430;-50
2020/12/07 22:44:04;;;;;;;1999.90;999.90;;;2.70;99.90;;;;;;5050807;28;20185;-49
2020/12/07 22:46:30;;;;;;;1999.90;999.90;;;2.70;99.90;;;;;;5048287;28;20217;-50
2020/12/07 22:48:56;;;;;;;1999.90;999.90;;;2.60;99.90;;;;;;5044980;28;20638;-50
2020/12/07 22:51:22;;;;;;;1999.90;999.90;;;2.70;99.90;;;;;;5049056;28;20282;-50
2020/12/07 22:53:48;;;;;;;1999.90;999.90;;;2.60;99.90;;;;;;5049997;28;20417;-50
2020/12/07 22:56:14;;;;;;;1999.90;999.90;;;2.70;99.90;;;;;;5041460;28;20741;-51
2020/12/07 22:58:41;;;;;;;1999.90;999.90;;;2.70;99.90;;;;;;5048124;28;20424;-50
